Time;durP1;ratioP1;P1;durP2;ratioP2;P2;SDS_P1;SDS_P2;PMS_P1;PMS_P2;Temp;Humidity;BMP_temperature;BMP_pressure;BME280_temperature;BME280_humidity;BME280_pressure;Samples;Min_cycle;Max_cycle;Signal;HPM_P1;HPM_P2
2023/10/08 00:00:50;;;;;;;0.90;0.90;;;16.40;99.90;;;;;;5085427;28;20036;-90
2023/10/08 00:03:17;;;;;;;0.90;0.90;;;16.30;99.90;;;;;;5104496;28;20044;-91
2023/10/08 00:05:43;;;;;;;0.80;0.80;;;16.10;99.90;;;;;;5100814;28;20043;-91
2023/10/08 00:08:10;;;;;;;0.80;0.80;;;16.10;99.90;;;;;;5100475;28;21418;-89
2023/10/08 00:10:41;;;;;;;0.80;0.80;;;15.80;99.90;;;;;;5089081;28;20126;-93
2023/10/08 00:13:16;;;;;;;1.05;1.05;;;15.60;99.90;;;;;;5093242;28;20043;-89
2023/10/08 00:18:51;;;;;;;0.90;0.90;;;15.40;99.90;;;;;;5084313;28;20040;-89
2023/10/08 00:21:26;;;;;;;1.00;1.00;;;15.20;99.90;;;;;;5087263;28;20036;-88
2023/10/08 00:24:01;;;;;;;1.10;1.10;;;15.20;99.90;;;;;;5094783;27;20043;-88
2023/10/08 00:26:29;;;;;;;1.10;1.10;;;15.20;99.90;;;;;;5087663;27;20373;-90
2023/10/08 00:29:21;;;;;;;1.10;1.10;;;15.40;99.90;;;;;;5091670;28;20040;-90
2023/10/08 00:31:49;;;;;;;1.10;1.10;;;15.00;99.90;;;;;;5116036;27;20641;-91
2023/10/08 00:34:16;;;;;;;1.05;1.05;;;15.10;99.90;;;;;;5095860;27;20693;-89
2023/10/08 00:36:45;;;;;;;1.00;1.00;;;15.10;99.90;;;;;;5096069;27;20040;-87
2023/10/08 00:39:22;;;;;;;1.00;1.00;;;15.20;99.90;;;;;;5090008;27;20046;-90
2023/10/08 00:41:58;;;;;;;1.02;1.02;;;15.00;99.90;;;;;;5096200;27;20112;-89
2023/10/08 00:44:30;;;;;;;1.05;1.05;;;15.20;99.90;;;;;;5120861;27;20047;-90
2023/10/08 00:47:00;;;;;;;1.00;1.00;;;15.10;99.90;;;;;;5094698;28;20044;-92
2023/10/08 00:52:30;;;;;;;1.17;1.17;;;14.80;99.90;;;;;;5107533;27;20723;-91
2023/10/08 00:58:23;;;;;;;1.20;1.20;;;14.70;99.90;;;;;;5107300;27;20575;-91
2023/10/08 01:01:02;;;;;;;1.23;1.23;;;14.70;99.90;;;;;;5094059;27;20058;-90
2023/10/08 01:03:35;;;;;;;1.23;1.23;;;14.90;99.90;;;;;;5089972;28;20036;-93
2023/10/08 01:06:10;;;;;;;1.10;1.10;;;14.90;99.90;;;;;;5091654;28;20056;-93
2023/10/08 01:09:17;;;;;;;1.10;1.10;;;14.70;99.90;;;;;;5089803;27;20035;-89
2023/10/08 01:14:54;;;;;;;1.27;1.27;;;14.50;99.90;;;;;;5095014;27;20054;-89
2023/10/08 01:17:25;;;;;;;1.60;1.50;;;14.40;99.90;;;;;;5098508;27;20716;-90
2023/10/08 01:23:18;;;;;;;1.67;1.58;;;14.50;99.90;;;;;;5050392;28;20040;-91
2023/10/08 01:26:11;;;;;;;1.80;1.70;;;14.10;99.90;;;;;;5083840;27;20051;-89
2023/10/08 01:28:43;;;;;;;1.70;1.60;;;14.40;99.90;;;;;;5096726;27;20654;-90
2023/10/08 01:34:54;;;;;;;1.90;1.80;;;14.50;99.90;;;;;;5114018;27;20058;-91
2023/10/08 01:37:22;;;;;;;1.92;1.83;;;14.50;99.90;;;;;;5085269;27;20048;-87
2023/10/08 01:40:01;;;;;;;1.70;1.60;;;14.70;99.90;;;;;;5117967;27;20564;-89
2023/10/08 01:42:39;;;;;;;1.77;1.67;;;14.30;99.90;;;;;;5115042;27;20046;-91
2023/10/08 01:45:19;;;;;;;1.95;1.85;;;14.30;99.90;;;;;;5092068;27;20558;-91
2023/10/08 01:47:51;;;;;;;1.80;1.70;;;14.40;99.90;;;;;;5092714;27;20039;-92
2023/10/08 01:50:22;;;;;;;1.98;1.88;;;14.50;99.90;;;;;;5094998;27;20827;-90
2023/10/08 01:53:11;;;;;;;2.05;1.95;;;14.20;99.90;;;;;;5094212;28;20040;-92
2023/10/08 01:55:48;;;;;;;2.03;1.92;;;14.50;99.90;;;;;;5085633;27;20051;-89
2023/10/08 01:59:08;;;;;;;1.80;1.70;;;14.70;99.90;;;;;;5095639;27;20062;-90
2023/10/08 02:01:20;;;;;;;2.00;1.90;;;14.50;99.90;;;;;;5093229;27;20065;-90
2023/10/08 02:04:09;;;;;;;2.00;1.90;;;14.30;99.90;;;;;;5094061;27;20047;-90
2023/10/08 02:07:13;;;;;;;1.90;1.80;;;14.40;99.90;;;;;;5087913;28;20052;-90
2023/10/08 02:09:42;;;;;;;2.05;1.95;;;14.60;99.90;;;;;;5095699;27;20040;-90
2023/10/08 02:12:25;;;;;;;2.03;1.92;;;14.30;99.90;;;;;;5096521;27;20085;-88
2023/10/08 02:14:54;;;;;;;1.92;1.83;;;14.60;99.90;;;;;;5091064;27;20116;-89
2023/10/08 02:17:28;;;;;;;1.88;1.77;;;14.40;99.90;;;;;;5078231;28;20075;-89
2023/10/08 02:19:57;;;;;;;1.92;1.83;;;14.20;99.90;;;;;;5086172;27;20555;-89
2023/10/08 02:22:26;;;;;;;1.83;1.73;;;14.20;99.90;;;;;;5110274;27;20035;-88
2023/10/08 02:25:01;;;;;;;1.80;1.70;;;14.40;99.90;;;;;;5085264;27;20089;-88
2023/10/08 02:27:38;;;;;;;2.03;1.92;;;14.40;99.90;;;;;;5085353;28;20661;-89
2023/10/08 02:30:27;;;;;;;2.00;1.90;;;14.70;99.90;;;;;;5083638;27;20039;-90
2023/10/08 02:32:58;;;;;;;2.20;2.10;;;14.70;99.90;;;;;;5009060;28;20092;-88
2023/10/08 02:35:33;;;;;;;2.25;2.15;;;14.50;99.90;;;;;;5081760;28;20040;-88
2023/10/08 02:38:06;;;;;;;2.30;2.20;;;14.40;99.90;;;;;;5099552;27;20035;-88
2023/10/08 02:41:06;;;;;;;2.53;2.42;;;14.50;99.90;;;;;;5087731;28;20040;-88
2023/10/08 02:43:37;;;;;;;2.28;2.17;;;14.70;99.90;;;;;;5081931;27;20120;-90
2023/10/08 02:48:58;;;;;;;2.60;2.50;;;14.30;99.90;;;;;;5075428;27;20131;-89
2023/10/08 02:51:39;;;;;;;2.45;2.35;;;14.60;99.90;;;;;;5097740;27;20645;-89
2023/10/08 02:57:10;;;;;;;2.38;2.28;;;14.40;99.90;;;;;;5036136;28;20049;-88
2023/10/08 02:59:49;;;;;;;2.40;2.30;;;14.40;99.90;;;;;;5094550;27;20537;-88
2023/10/08 03:02:21;;;;;;;2.42;2.33;;;14.30;99.90;;;;;;5086186;28;20536;-89
2023/10/08 03:04:58;;;;;;;2.42;2.33;;;14.30;99.90;;;;;;5088592;27;20054;-88
2023/10/08 03:07:33;;;;;;;2.28;2.17;;;14.50;99.90;;;;;;5085671;28;20050;-89
2023/10/08 03:10:16;;;;;;;2.33;2.22;;;14.50;99.90;;;;;;5091356;28;20036;-89
2023/10/08 03:12:49;;;;;;;2.42;2.33;;;14.70;99.90;;;;;;5095891;28;20040;-88
2023/10/08 03:18:50;;;;;;;2.30;2.20;;;14.60;99.90;;;;;;5105566;27;20540;-88
2023/10/08 03:24:29;;;;;;;2.55;2.45;;;14.30;99.90;;;;;;5102071;27;20055;-87
2023/10/08 03:27:15;;;;;;;2.40;2.30;;;14.60;99.90;;;;;;5089971;28;20122;-88
2023/10/08 03:29:51;;;;;;;2.47;2.38;;;14.50;99.90;;;;;;5079551;27;20100;-89
2023/10/08 03:32:26;;;;;;;2.38;2.28;;;14.60;99.90;;;;;;5098388;28;20057;-87
2023/10/08 03:34:59;;;;;;;2.20;2.10;;;14.60;99.90;;;;;;5098602;27;20134;-87
2023/10/08 03:37:40;;;;;;;2.10;2.00;;;14.40;99.90;;;;;;5102955;27;20054;-87
2023/10/08 03:43:14;;;;;;;2.30;2.20;;;14.30;99.90;;;;;;5100538;28;20074;-86
2023/10/08 03:45:59;;;;;;;2.53;2.42;;;14.40;99.90;;;;;;5105094;28;20040;-88
2023/10/08 03:48:38;;;;;;;2.20;2.10;;;14.20;99.90;;;;;;5082481;28;20499;-88
2023/10/08 03:51:11;;;;;;;2.10;2.00;;;14.10;99.90;;;;;;5103097;28;21032;-87
2023/10/08 03:54:15;;;;;;;2.40;2.30;;;14.10;99.90;;;;;;5111023;28;20043;-88
2023/10/08 03:56:48;;;;;;;2.35;2.25;;;14.50;99.90;;;;;;5111757;28;20137;-87
2023/10/08 03:59:40;;;;;;;2.17;2.08;;;14.30;99.90;;;;;;5081902;28;20039;-87
2023/10/08 04:05:18;;;;;;;2.25;2.15;;;14.40;99.90;;;;;;5105439;27;20054;-88
2023/10/08 04:10:58;;;;;;;2.05;1.95;;;14.50;99.90;;;;;;5120491;27;20050;-88
2023/10/08 04:13:44;;;;;;;2.35;2.25;;;14.20;99.90;;;;;;5108203;27;20084;-88
2023/10/08 04:16:19;;;;;;;2.17;2.08;;;14.20;99.90;;;;;;5096054;27;20047;-89
2023/10/08 04:18:56;;;;;;;2.35;2.25;;;14.00;99.90;;;;;;5098269;27;20142;-90
2023/10/08 04:21:33;;;;;;;2.38;2.28;;;14.20;99.90;;;;;;5094080;27;20111;-90
2023/10/08 04:24:14;;;;;;;2.33;2.22;;;14.10;99.90;;;;;;5099051;27;20050;-89
2023/10/08 04:26:43;;;;;;;2.28;2.17;;;14.20;99.90;;;;;;5112550;27;20039;-90
2023/10/08 04:29:16;;;;;;;2.38;2.28;;;14.20;99.90;;;;;;5088455;28;20059;-90
2023/10/08 04:32:01;;;;;;;2.28;2.17;;;14.10;99.90;;;;;;5113436;27;20503;-90
2023/10/08 04:34:36;;;;;;;2.22;2.13;;;14.40;99.90;;;;;;5099717;27;20059;-92
2023/10/08 04:37:12;;;;;;;2.13;2.03;;;14.10;99.90;;;;;;5097654;28;20104;-90
2023/10/08 04:39:58;;;;;;;2.08;1.98;;;14.50;99.90;;;;;;5081199;28;20099;-92
2023/10/08 04:42:32;;;;;;;2.17;2.08;;;14.10;99.90;;;;;;5096102;28;20796;-92
2023/10/08 04:45:13;;;;;;;2.20;2.10;;;14.10;99.90;;;;;;5099482;27;20066;-91
2023/10/08 04:47:50;;;;;;;2.20;2.10;;;14.40;99.90;;;;;;5082584;28;20051;-93
2023/10/08 04:50:21;;;;;;;2.15;2.05;;;14.30;99.90;;;;;;5096487;27;20055;-88
2023/10/08 04:52:59;;;;;;;2.15;2.05;;;14.20;99.90;;;;;;5088394;28;20043;-90
2023/10/08 04:55:48;;;;;;;2.30;2.20;;;14.20;99.90;;;;;;5100322;27;20099;-90
2023/10/08 04:58:26;;;;;;;2.30;2.20;;;14.20;99.90;;;;;;5087606;27;20507;-90
2023/10/08 05:01:17;;;;;;;2.25;2.15;;;14.10;99.90;;;;;;5118606;27;20051;-91
2023/10/08 05:09:47;;;;;;;2.17;2.08;;;14.20;99.90;;;;;;5104650;27;20045;-92
2023/10/08 05:26:20;;;;;;;2.17;2.08;;;14.40;99.90;;;;;;5121517;27;20155;-92
2023/10/08 05:29:01;;;;;;;2.10;2.00;;;14.20;99.90;;;;;;5093418;28;20121;-91
2023/10/08 05:34:42;;;;;;;2.22;2.13;;;14.40;99.90;;;;;;5093924;28;20449;-92
2023/10/08 05:37:37;;;;;;;2.03;1.92;;;14.10;99.90;;;;;;5042040;28;20056;-92
2023/10/08 05:57:38;;;;;;;2.40;2.30;;;14.00;99.90;;;;;;5089387;28;20102;-92
2023/10/08 06:00:29;;;;;;;2.30;2.20;;;14.00;99.90;;;;;;5070201;28;20154;-93
2023/10/08 06:11:56;;;;;;;2.25;2.15;;;14.00;99.90;;;;;;5094241;28;20047;-91
2023/10/08 06:20:25;;;;;;;2.30;2.20;;;14.30;99.90;;;;;;5058194;28;20059;-93
2023/10/08 06:22:59;;;;;;;2.40;2.30;;;13.80;99.90;;;;;;5077703;28;20088;-91
2023/10/08 06:25:28;;;;;;;2.70;2.55;;;13.90;99.90;;;;;;5076167;28;20054;-91
2023/10/08 06:27:59;;;;;;;2.42;2.33;;;14.20;99.90;;;;;;5072349;28;20504;-89
2023/10/08 06:30:34;;;;;;;2.45;2.35;;;14.20;99.90;;;;;;5074070;28;20047;-90
2023/10/08 06:33:16;;;;;;;2.25;2.15;;;14.50;99.90;;;;;;5077820;28;20496;-91
2023/10/08 06:38:51;;;;;;;2.35;2.25;;;14.30;99.90;;;;;;5062537;28;20052;-92
2023/10/08 06:41:28;;;;;;;2.35;2.25;;;14.30;99.90;;;;;;5071876;28;20047;-91
2023/10/08 06:44:03;;;;;;;2.53;2.42;;;14.20;99.90;;;;;;5076874;28;20071;-91
2023/10/08 06:46:32;;;;;;;2.20;2.10;;;14.40;99.90;;;;;;5067617;27;20070;-91
2023/10/08 06:49:11;;;;;;;2.10;2.00;;;14.50;99.90;;;;;;5072199;28;20071;-89
2023/10/08 06:51:48;;;;;;;2.35;2.25;;;14.40;99.90;;;;;;5067850;28;20712;-90
2023/10/08 06:54:17;;;;;;;2.25;2.15;;;14.20;99.90;;;;;;5054225;28;20050;-91
2023/10/08 06:56:56;;;;;;;2.30;2.20;;;14.60;99.90;;;;;;5085225;27;22236;-90
2023/10/08 06:59:23;;;;;;;2.30;2.20;;;14.50;99.90;;;;;;5091011;27;20035;-87
2023/10/08 07:01:55;;;;;;;2.30;2.20;;;14.40;99.90;;;;;;5086181;28;20058;-91
2023/10/08 07:04:21;;;;;;;2.25;2.15;;;14.80;99.90;;;;;;5089495;27;20132;-91
2023/10/08 07:07:19;;;;;;;2.35;2.25;;;14.70;99.90;;;;;;5096159;27;20126;-90
2023/10/08 07:09:48;;;;;;;2.40;2.30;;;14.60;99.90;;;;;;5077350;28;20051;-90
2023/10/08 07:12:25;;;;;;;2.35;2.25;;;14.70;99.90;;;;;;5106102;27;20067;-88
2023/10/08 07:14:54;;;;;;;2.15;2.05;;;14.70;99.90;;;;;;5095618;28;20141;-93
2023/10/08 07:17:27;;;;;;;2.13;2.03;;;14.80;99.90;;;;;;5101841;27;20051;-92
2023/10/08 07:19:57;;;;;;;2.28;2.17;;;14.80;99.90;;;;;;5084254;28;20833;-90
2023/10/08 07:22:28;;;;;;;2.22;2.13;;;14.80;99.90;;;;;;5110915;27;20048;-91
2023/10/08 07:25:01;;;;;;;2.20;2.10;;;14.60;99.90;;;;;;5088836;28;20167;-90
2023/10/08 07:27:37;;;;;;;2.08;1.98;;;14.50;99.90;;;;;;5092346;28;20522;-90
2023/10/08 07:30:32;;;;;;;1.98;1.88;;;14.60;99.90;;;;;;5085956;27;20050;-89
2023/10/08 07:33:04;;;;;;;2.17;2.08;;;14.80;99.90;;;;;;5085805;28;20094;-88
2023/10/08 07:36:04;;;;;;;2.15;2.05;;;14.80;99.90;;;;;;5093046;28;20070;-89
2023/10/08 07:38:35;;;;;;;2.20;2.10;;;15.00;99.90;;;;;;5109509;27;20412;-86
2023/10/08 07:41:01;;;;;;;2.08;1.98;;;15.10;99.90;;;;;;5099467;27;20261;-83
2023/10/08 07:43:28;;;;;;;2.05;1.95;;;15.00;99.90;;;;;;5103464;27;20039;-86
2023/10/08 07:45:57;;;;;;;1.90;1.80;;;15.00;99.90;;;;;;5119776;27;20039;-91
2023/10/08 07:48:29;;;;;;;1.88;1.77;;;15.20;99.90;;;;;;5086629;28;20477;-89
2023/10/08 07:50:58;;;;;;;1.80;1.70;;;15.00;99.90;;;;;;5115981;27;20121;-87
2023/10/08 07:53:37;;;;;;;1.95;1.85;;;15.10;99.90;;;;;;5099991;28;20036;-88
2023/10/08 07:56:20;;;;;;;;;;;;;;;;;;;;;
2023/10/08 07:59:07;;;;;;;2.00;1.90;;;15.20;99.90;;;;;;5099950;28;20039;-90
2023/10/08 08:01:42;;;;;;;2.10;2.00;;;14.90;99.90;;;;;;5082952;28;20510;-89
2023/10/08 08:04:33;;;;;;;2.08;1.98;;;14.90;99.90;;;;;;5082917;28;20432;-90
2023/10/08 08:07:04;;;;;;;2.03;1.92;;;15.00;99.90;;;;;;5089068;28;20135;-91
2023/10/08 08:09:44;;;;;;;1.95;1.85;;;15.20;99.90;;;;;;5082920;28;20048;-86
2023/10/08 08:12:13;;;;;;;1.70;1.60;;;15.30;99.90;;;;;;5084192;28;20062;-87
2023/10/08 08:14:44;;;;;;;1.80;1.70;;;15.40;99.90;;;;;;5079198;28;20052;-88
2023/10/08 08:17:19;;;;;;;1.83;1.73;;;15.80;99.90;;;;;;5103437;28;20104;-91
2023/10/08 08:19:58;;;;;;;2.03;1.92;;;15.90;99.90;;;;;;5094470;28;20052;-87
2023/10/08 08:25:34;;;;;;;1.92;1.83;;;15.60;99.90;;;;;;5087090;28;20112;-87
2023/10/08 08:28:06;;;;;;;;;;;15.80;99.90;;;;;;5094508;28;20112;-89
2023/10/08 08:30:33;;;;;;;1.85;1.75;;;16.30;99.90;;;;;;5096921;28;19927;-88
2023/10/08 08:33:00;;;;;;;1.75;1.65;;;16.40;99.90;;;;;;5105419;28;20136;-91
2023/10/08 08:35:26;;;;;;;1.67;1.58;;;16.30;99.90;;;;;;5082686;28;20049;-87
2023/10/08 08:37:52;;;;;;;1.33;1.33;;;16.40;99.90;;;;;;5099308;28;20043;-86
2023/10/08 08:40:29;;;;;;;1.40;1.38;;;16.50;99.90;;;;;;5107166;28;20043;-88
2023/10/08 08:42:58;;;;;;;1.48;1.40;;;16.40;99.90;;;;;;5099016;28;20051;-87
2023/10/08 08:45:24;;;;;;;1.58;1.48;;;16.50;99.90;;;;;;5107076;27;20530;-82
2023/10/08 08:47:56;;;;;;;1.33;1.33;;;16.60;99.90;;;;;;5108982;27;20059;-89
2023/10/08 08:50:26;;;;;;;1.50;1.40;;;16.50;99.90;;;;;;5112061;27;20043;-89
2023/10/08 08:52:52;;;;;;;1.45;1.38;;;16.30;99.90;;;;;;5105747;27;20043;-85
2023/10/08 08:55:20;;;;;;;1.33;1.33;;;16.50;99.90;;;;;;5112546;27;20043;-86
2023/10/08 08:57:51;;;;;;;1.33;1.30;;;16.50;99.90;;;;;;5111510;27;20050;-88
2023/10/08 09:00:20;;;;;;;1.33;1.30;;;16.50;99.90;;;;;;5089180;27;20685;-88
2023/10/08 09:02:55;;;;;;;1.38;1.33;;;16.60;99.90;;;;;;5084484;27;20040;-89
2023/10/08 09:05:37;;;;;;;1.30;1.30;;;16.70;99.90;;;;;;5093503;27;20052;-87
2023/10/08 09:08:06;;;;;;;1.45;1.38;;;16.90;99.90;;;;;;5106063;27;20134;-87
2023/10/08 09:10:37;;;;;;;1.52;1.45;;;16.80;99.90;;;;;;5081815;27;20118;-86
2023/10/08 09:13:14;;;;;;;1.52;1.42;;;16.90;99.90;;;;;;5077588;27;20073;-86
2023/10/08 09:15:43;;;;;;;1.50;1.42;;;16.80;99.90;;;;;;5093336;27;20910;-85
2023/10/08 09:18:09;;;;;;;1.30;1.27;;;16.90;99.90;;;;;;5108726;27;20095;-87
2023/10/08 09:20:53;;;;;;;1.23;1.23;;;17.10;99.90;;;;;;5105239;27;20086;-84
2023/10/08 09:23:25;;;;;;;1.33;1.33;;;17.10;99.90;;;;;;5104256;27;20053;-88
2023/10/08 09:26:02;;;;;;;1.30;1.30;;;17.20;99.90;;;;;;5078263;28;20066;-87
2023/10/08 09:28:28;;;;;;;1.50;1.42;;;17.20;99.90;;;;;;5108708;27;20043;-83
2023/10/08 09:30:58;;;;;;;1.48;1.40;;;17.10;99.90;;;;;;5101067;27;20047;-83
2023/10/08 09:33:24;;;;;;;1.83;1.73;;;17.30;99.90;;;;;;5111830;27;20378;-86
2023/10/08 09:35:55;;;;;;;1.52;1.45;;;17.10;99.90;;;;;;5104735;27;20117;-85
2023/10/08 09:38:23;;;;;;;1.60;1.50;;;17.20;99.90;;;;;;5104692;27;20039;-85
2023/10/08 09:40:49;;;;;;;1.65;1.55;;;17.20;99.90;;;;;;5114172;27;20122;-85
2023/10/08 09:43:16;;;;;;;1.95;1.85;;;17.30;99.90;;;;;;5103453;27;20130;-86
2023/10/08 09:45:47;;;;;;;1.88;1.77;;;17.00;99.90;;;;;;5109631;27;20107;-86
2023/10/08 09:48:17;;;;;;;2.00;1.90;;;16.60;99.90;;;;;;5113214;27;20100;-84
2023/10/08 09:50:44;;;;;;;2.17;2.08;;;16.60;99.90;;;;;;5113083;27;20043;-84
2023/10/08 09:53:16;;;;;;;2.00;1.90;;;16.50;99.90;;;;;;5113899;27;20074;-84
2023/10/08 09:55:49;;;;;;;1.75;1.65;;;16.40;99.90;;;;;;5113100;27;20127;-85
2023/10/08 09:58:16;;;;;;;2.05;1.95;;;16.60;99.90;;;;;;5107931;27;20049;-87
2023/10/08 10:00:44;;;;;;;1.85;1.75;;;16.50;99.90;;;;;;5095579;27;20160;-83
2023/10/08 10:03:12;;;;;;;1.73;1.63;;;16.80;99.90;;;;;;5104976;27;20095;-84
2023/10/08 10:05:38;;;;;;;2.15;2.05;;;16.60;99.90;;;;;;5107605;27;21954;-83
2023/10/08 10:08:09;;;;;;;1.83;1.73;;;16.50;99.90;;;;;;5099473;27;20040;-81
2023/10/08 10:10:38;;;;;;;1.67;1.58;;;16.90;99.90;;;;;;5100233;27;20055;-81
2023/10/08 10:13:10;;;;;;;1.70;1.60;;;17.20;99.90;;;;;;5107436;27;20039;-84
2023/10/08 10:15:37;;;;;;;1.50;1.42;;;17.30;99.90;;;;;;5102699;27;20035;-86
2023/10/08 10:18:25;;;;;;;1.48;1.40;;;17.50;99.90;;;;;;5106684;27;20111;-84
2023/10/08 10:21:02;;;;;;;1.45;1.38;;;17.60;99.90;;;;;;5103748;27;20128;-84
2023/10/08 10:23:43;;;;;;;1.27;1.27;;;17.80;99.90;;;;;;5078687;27;20042;-83
2023/10/08 10:26:28;;;;;;;1.67;1.58;;;17.90;99.90;;;;;;5105065;27;20176;-81
2023/10/08 10:29:15;;;;;;;1.52;1.42;;;18.00;99.90;;;;;;5100020;27;20047;-82
2023/10/08 10:31:54;;;;;;;1.45;1.40;;;18.30;99.90;;;;;;5111541;27;20477;-83
2023/10/08 10:34:27;;;;;;;1.52;1.45;;;17.80;99.90;;;;;;5104116;27;20424;-85
2023/10/08 10:37:08;;;;;;;1.25;1.25;;;18.40;99.90;;;;;;5102880;27;20843;-84
2023/10/08 10:39:39;;;;;;;1.58;1.48;;;18.40;99.90;;;;;;5110961;27;20046;-83
2023/10/08 10:42:20;;;;;;;1.75;1.65;;;18.00;99.90;;;;;;5095084;27;20051;-84
2023/10/08 10:44:49;;;;;;;1.73;1.63;;;18.00;99.90;;;;;;5102873;27;20043;-84
2023/10/08 10:52:51;;;;;;;1.20;1.20;;;18.20;99.90;;;;;;5092183;27;20074;-86
2023/10/08 10:55:22;;;;;;;1.20;1.20;;;17.80;99.90;;;;;;5095827;27;20107;-85
2023/10/08 10:57:56;;;;;;;1.33;1.30;;;17.60;99.90;;;;;;5102693;27;20145;-82
2023/10/08 11:03:15;;;;;;;1.65;1.55;;;17.10;99.90;;;;;;5094499;27;20051;-84
2023/10/08 11:05:47;;;;;;;1.52;1.45;;;17.10;99.90;;;;;;5106260;27;20147;-84
2023/10/08 11:08:15;;;;;;;1.30;1.30;;;17.80;99.90;;;;;;5105546;27;20079;-86
2023/10/08 11:10:49;;;;;;;1.50;1.40;;;17.70;99.90;;;;;;5106938;27;20680;-86
2023/10/08 11:13:15;;;;;;;1.50;1.42;;;18.00;99.90;;;;;;5100280;27;20122;-85
2023/10/08 11:15:49;;;;;;;1.40;1.35;;;18.10;99.90;;;;;;5104617;27;20050;-84
2023/10/08 11:18:17;;;;;;;1.25;1.25;;;17.60;99.90;;;;;;5078974;28;20051;-85
2023/10/08 11:20:44;;;;;;;1.48;1.40;;;17.60;99.90;;;;;;5105374;27;20047;-83
2023/10/08 11:23:33;;;;;;;1.35;1.33;;;17.90;99.90;;;;;;5105764;27;20083;-83
2023/10/08 11:26:06;;;;;;;1.40;1.35;;;18.00;99.90;;;;;;5097254;27;20122;-84
2023/10/08 11:28:34;;;;;;;1.27;1.27;;;18.00;99.90;;;;;;5112105;27;20035;-83
2023/10/08 11:31:10;;;;;;;1.30;1.30;;;18.00;99.90;;;;;;5096418;27;20039;-86
2023/10/08 11:33:56;;;;;;;1.20;1.20;;;18.00;99.90;;;;;;5107700;27;20067;-82
2023/10/08 11:36:27;;;;;;;1.30;1.30;;;18.00;99.90;;;;;;5100027;27;20854;-87
2023/10/08 11:39:07;;;;;;;1.25;1.25;;;18.20;99.90;;;;;;5100760;27;20817;-83
2023/10/08 11:41:49;;;;;;;1.50;1.40;;;18.60;99.90;;;;;;5096359;27;20051;-84
2023/10/08 11:44:19;;;;;;;1.35;1.35;;;19.20;99.90;;;;;;5091215;28;20043;-84
2023/10/08 11:46:51;;;;;;;1.10;1.10;;;19.10;99.90;;;;;;5082341;28;20055;-87
2023/10/08 11:49:25;;;;;;;1.00;1.00;;;18.80;99.90;;;;;;5094202;28;20050;-84
2023/10/08 11:51:52;;;;;;;0.90;0.90;;;19.00;99.90;;;;;;5080289;28;20079;-84
2023/10/08 11:54:20;;;;;;;0.90;0.90;;;19.10;99.90;;;;;;5107525;28;20051;-83
2023/10/08 11:56:47;;;;;;;0.93;0.93;;;18.80;99.90;;;;;;5094698;28;20043;-85
2023/10/08 11:59:13;;;;;;;0.98;0.98;;;19.50;99.90;;;;;;5096042;28;20048;-85
2023/10/08 12:01:42;;;;;;;1.05;1.05;;;19.80;99.90;;;;;;5101110;28;20043;-85
2023/10/08 12:04:16;;;;;;;0.93;0.93;;;18.20;99.90;;;;;;5101855;28;20058;-84
2023/10/08 12:06:52;;;;;;;1.02;1.02;;;18.70;99.90;;;;;;5094916;28;20047;-83
2023/10/08 12:09:21;;;;;;;0.90;0.90;;;18.20;99.90;;;;;;5101240;28;20056;-82
2023/10/08 12:11:47;;;;;;;0.93;0.93;;;18.50;99.90;;;;;;5098176;28;20123;-83
2023/10/08 12:14:14;;;;;;;0.90;0.90;;;18.90;99.90;;;;;;5106509;28;20043;-85
2023/10/08 12:16:41;;;;;;;0.90;0.90;;;19.10;99.90;;;;;;5098798;28;20112;-84
2023/10/08 12:19:16;;;;;;;1.00;1.00;;;18.90;99.90;;;;;;5096182;28;20150;-83
2023/10/08 12:21:42;;;;;;;1.00;1.00;;;18.50;99.90;;;;;;5104875;27;20109;-86
2023/10/08 12:24:12;;;;;;;0.95;0.95;;;18.60;99.90;;;;;;5105414;27;20117;-88
2023/10/08 12:26:47;;;;;;;0.98;0.98;;;19.20;99.90;;;;;;5087594;27;20051;-85
2023/10/08 12:29:19;;;;;;;0.98;0.98;;;19.30;99.90;;;;;;5099684;27;20051;-89
2023/10/08 12:31:47;;;;;;;1.05;1.05;;;19.40;99.90;;;;;;5087580;28;20051;-84
2023/10/08 12:34:16;;;;;;;1.00;1.00;;;19.60;99.90;;;;;;5107334;27;20051;-85
2023/10/08 12:36:42;;;;;;;1.05;1.05;;;19.70;99.90;;;;;;5096798;27;20046;-83
2023/10/08 12:39:14;;;;;;;0.90;0.90;;;19.20;99.90;;;;;;5121153;27;20048;-84
2023/10/08 12:41:44;;;;;;;1.10;1.10;;;19.40;99.90;;;;;;5112325;27;20047;-86
2023/10/08 12:44:10;;;;;;;1.10;1.10;;;19.60;99.90;;;;;;5118639;27;20538;-83
2023/10/08 12:46:36;;;;;;;1.00;1.00;;;19.00;99.90;;;;;;5112343;27;20043;-86
2023/10/08 12:49:02;;;;;;;1.63;1.52;;;19.40;99.90;;;;;;5112785;27;20196;-82
2023/10/08 12:51:32;;;;;;;1.10;1.10;;;19.10;99.90;;;;;;5113546;27;20048;-83
2023/10/08 12:54:11;;;;;;;1.10;1.10;;;19.50;99.90;;;;;;5109297;27;20087;-82
2023/10/08 12:56:44;;;;;;;1.17;1.17;;;19.30;99.90;;;;;;5114520;27;20043;-86
2023/10/08 12:59:20;;;;;;;1.60;1.50;;;19.30;99.90;;;;;;5095472;28;20055;-85
2023/10/08 13:01:50;;;;;;;1.58;1.48;;;19.20;99.90;;;;;;5086430;27;20051;-85
2023/10/08 13:04:28;;;;;;;1.23;1.23;;;19.20;99.90;;;;;;5108641;27;20058;-85
2023/10/08 13:06:57;;;;;;;1.13;1.13;;;19.60;99.90;;;;;;5114070;27;20072;-83
2023/10/08 13:09:26;;;;;;;1.10;1.10;;;20.00;99.90;;;;;;5103209;27;20158;-85
2023/10/08 13:11:51;;;;;;;1.10;1.10;;;19.80;99.90;;;;;;5108957;27;20488;-84
2023/10/08 13:14:17;;;;;;;1.00;1.00;;;19.70;99.90;;;;;;5100991;27;20049;-84
2023/10/08 13:16:45;;;;;;;0.98;0.98;;;19.70;99.90;;;;;;5116031;27;20039;-84
2023/10/08 13:19:10;;;;;;;1.48;1.38;;;19.50;99.90;;;;;;5084189;27;20565;-85
2023/10/08 13:21:37;;;;;;;1.02;1.02;;;19.20;99.90;;;;;;5102314;27;20036;-84
2023/10/08 13:24:05;;;;;;;1.17;1.15;;;19.20;99.90;;;;;;5106711;27;20440;-87
2023/10/08 13:26:33;;;;;;;0.85;0.85;;;19.40;99.90;;;;;;5098499;28;20054;-86
2023/10/08 13:29:11;;;;;;;0.95;0.95;;;19.60;99.90;;;;;;5096726;28;20504;-84
2023/10/08 13:31:37;;;;;;;1.52;1.45;;;19.20;99.90;;;;;;5101022;28;20036;-84
2023/10/08 13:34:08;;;;;;;1.20;1.20;;;19.30;99.90;;;;;;5112533;27;20537;-85
2023/10/08 13:36:38;;;;;;;1.17;1.17;;;19.40;99.90;;;;;;5096617;27;20054;-84
2023/10/08 13:39:09;;;;;;;1.52;1.45;;;19.40;99.90;;;;;;5103443;27;20043;-83
2023/10/08 13:41:37;;;;;;;1.92;1.83;;;19.20;99.90;;;;;;5111407;27;20055;-85
2023/10/08 13:44:05;;;;;;;1.38;1.33;;;18.90;99.90;;;;;;5101851;27;20104;-84
2023/10/08 13:46:36;;;;;;;0.75;0.75;;;18.90;99.90;;;;;;5095769;27;20047;-86
2023/10/08 13:49:01;;;;;;;0.65;0.65;;;18.60;99.90;;;;;;5113884;27;20043;-84
2023/10/08 13:51:27;;;;;;;0.65;0.65;;;18.40;99.90;;;;;;5115857;27;20050;-84
2023/10/08 13:53:59;;;;;;;0.85;0.85;;;18.30;99.90;;;;;;5117081;27;20062;-85
2023/10/08 13:56:26;;;;;;;0.82;0.82;;;18.20;99.90;;;;;;5073696;28;20074;-87
2023/10/08 13:59:03;;;;;;;0.85;0.85;;;18.30;99.90;;;;;;5086702;27;20068;-85
2023/10/08 14:01:33;;;;;;;1.02;1.02;;;18.30;99.90;;;;;;5114374;27;20055;-84
2023/10/08 14:04:04;;;;;;;0.95;0.95;;;18.00;99.90;;;;;;5098144;27;20054;-85
2023/10/08 14:06:31;;;;;;;0.90;0.90;;;18.10;99.90;;;;;;5115524;27;20039;-87
2023/10/08 14:08:57;;;;;;;0.93;0.93;;;18.10;99.90;;;;;;5110060;27;20115;-84
2023/10/08 14:11:29;;;;;;;0.90;0.90;;;18.30;99.90;;;;;;5117081;27;20043;-83
2023/10/08 14:14:02;;;;;;;0.85;0.85;;;18.20;99.90;;;;;;5097404;27;20048;-85
2023/10/08 14:16:28;;;;;;;0.85;0.85;;;18.40;99.90;;;;;;5095774;27;20078;-83
2023/10/08 14:18:59;;;;;;;0.77;0.77;;;18.20;99.90;;;;;;5103804;27;20161;-82
2023/10/08 14:21:30;;;;;;;1.05;1.05;;;18.30;99.90;;;;;;5118377;27;20484;-84
2023/10/08 14:24:02;;;;;;;0.73;0.73;;;18.20;99.90;;;;;;5100438;27;20052;-83
2023/10/08 14:26:38;;;;;;;0.88;0.88;;;18.30;99.90;;;;;;5078936;28;20054;-84
2023/10/08 14:29:17;;;;;;;0.77;0.77;;;18.10;99.90;;;;;;5086495;28;20142;-81
2023/10/08 14:31:44;;;;;;;0.80;0.80;;;18.00;99.90;;;;;;5110949;27;20107;-83
2023/10/08 14:44:58;;;;;;;0.80;0.80;;;18.10;99.90;;;;;;5111968;27;20100;-85
2023/10/08 14:47:26;;;;;;;0.90;0.90;;;18.10;99.90;;;;;;5101514;27;20055;-86
2023/10/08 14:49:51;;;;;;;1.00;1.00;;;18.10;99.90;;;;;;5111025;27;20810;-86
2023/10/08 14:52:18;;;;;;;1.10;1.10;;;17.90;99.90;;;;;;5092328;27;20126;-85
2023/10/08 14:54:45;;;;;;;0.98;0.98;;;17.80;99.90;;;;;;5116969;27;20081;-84
2023/10/08 14:57:14;;;;;;;1.02;1.02;;;17.80;99.90;;;;;;5103649;27;20079;-85
2023/10/08 14:59:41;;;;;;;0.95;0.95;;;17.70;99.90;;;;;;5092605;27;20126;-84
2023/10/08 15:02:07;;;;;;;1.10;1.10;;;17.60;99.90;;;;;;5108541;27;20055;-84
2023/10/08 15:04:35;;;;;;;1.15;1.15;;;17.40;99.90;;;;;;5102025;27;20128;-86
2023/10/08 15:07:01;;;;;;;1.00;1.00;;;17.40;99.90;;;;;;5091408;28;20043;-83
2023/10/08 15:09:28;;;;;;;0.93;0.93;;;17.40;99.90;;;;;;5104961;27;20086;-82
2023/10/08 15:11:53;;;;;;;0.95;0.95;;;17.40;99.90;;;;;;5099759;27;20043;-81
2023/10/08 15:14:20;;;;;;;0.95;0.95;;;17.30;99.90;;;;;;5113307;27;20394;-82
2023/10/08 15:16:51;;;;;;;1.00;1.00;;;17.40;99.90;;;;;;5115217;27;20051;-84
2023/10/08 15:19:19;;;;;;;0.98;0.98;;;17.30;99.90;;;;;;5092410;27;20075;-84
2023/10/08 15:21:50;;;;;;;0.90;0.90;;;17.20;99.90;;;;;;5100805;27;20441;-84